createdAt,value
2022-08-04T00:02:25.223Z,2.67
2022-08-04T00:05:01.641Z,2.50
2022-08-04T00:07:44.463Z,2.75
2022-08-04T00:10:12.479Z,3.03
2022-08-04T00:12:42.662Z,2.83
2022-08-04T00:15:14.812Z,3.00
2022-08-04T00:18:10.004Z,2.78
2022-08-04T00:20:39.261Z,2.70
2022-08-04T00:23:06.477Z,2.90
2022-08-04T00:25:33.778Z,2.65
2022-08-04T00:28:01.869Z,2.60
2022-08-04T00:30:29.051Z,2.60
2022-08-04T00:32:57.538Z,2.70
2022-08-04T00:35:24.799Z,2.60
2022-08-04T00:37:52.152Z,2.40
2022-08-04T00:41:01.134Z,2.65
2022-08-04T00:43:33.171Z,2.80
2022-08-04T00:46:28.785Z,2.63
2022-08-04T00:49:01.805Z,3.05
2022-08-04T00:51:40.978Z,2.50
2022-08-04T00:54:17.297Z,2.53
2022-08-04T00:57:46.057Z,2.50
2022-08-04T01:00:14.379Z,2.63
2022-08-04T01:03:06.462Z,2.80
2022-08-04T01:05:47.583Z,2.80
2022-08-04T01:08:35.047Z,2.67
2022-08-04T01:11:13.726Z,2.50
2022-08-04T01:13:46.791Z,2.70
2022-08-04T01:16:16.284Z,2.80
2022-08-04T01:19:19.082Z,2.80
2022-08-04T01:21:54.419Z,2.60
2022-08-04T01:24:39.294Z,2.70
2022-08-04T01:27:09.735Z,2.90
2022-08-04T01:30:00.376Z,2.80
2022-08-04T01:32:38.122Z,2.95
2022-08-04T01:35:22.085Z,2.85
2022-08-04T01:38:28.511Z,3.30
2022-08-04T01:40:57.709Z,2.60
2022-08-04T01:43:25.081Z,2.97
2022-08-04T01:45:58.316Z,2.95
2022-08-04T01:48:26.354Z,3.28
2022-08-04T01:50:54.283Z,3.05
2022-08-04T01:53:21.483Z,2.70
2022-08-04T01:55:54.083Z,3.00
2022-08-04T01:58:23.666Z,3.13
2022-08-04T02:01:04.843Z,3.00
2022-08-04T02:04:20.377Z,3.28
2022-08-04T02:06:46.590Z,3.05
2022-08-04T02:09:25.902Z,3.15
2022-08-04T02:12:06.042Z,3.10
2022-08-04T02:14:47.984Z,3.20
2022-08-04T02:17:20.608Z,3.08
2022-08-04T02:20:20.246Z,3.63
2022-08-04T02:22:53.314Z,3.10
2022-08-04T02:25:24.402Z,3.22
2022-08-04T02:28:16.105Z,3.17
2022-08-04T02:30:57.001Z,3.20
2022-08-04T02:33:30.680Z,3.20
2022-08-04T02:36:02.362Z,3.00
2022-08-04T02:38:53.792Z,2.97
2022-08-04T02:41:22.681Z,3.13
2022-08-04T02:43:50.894Z,2.95
2022-08-04T02:46:20.417Z,3.17
2022-08-04T02:48:48.538Z,3.20
2022-08-04T02:51:16.627Z,3.30
2022-08-04T02:53:43.971Z,3.00
2022-08-04T02:56:11.129Z,3.40
2022-08-04T02:58:38.401Z,3.20
2022-08-04T03:01:05.641Z,3.10
2022-08-04T03:03:32.824Z,3.40
2022-08-04T03:06:19.373Z,3.15
2022-08-04T03:09:18.349Z,3.05
2022-08-04T03:12:07.041Z,2.90
2022-08-04T03:14:49.333Z,3.13
2022-08-04T03:17:38.393Z,3.38
2022-08-04T03:20:57.404Z,3.53
2022-08-04T03:23:57.427Z,3.50
2022-08-04T03:26:52.615Z,2.90
2022-08-04T03:29:50.366Z,3.38
2022-08-04T03:32:26.534Z,3.40
2022-08-04T03:35:24.675Z,3.38
2022-08-04T03:38:30.990Z,3.13
2022-08-04T03:41:13.184Z,3.40
2022-08-04T03:43:58.000Z,3.17
2022-08-04T03:46:42.064Z,2.88
2022-08-04T03:49:30.881Z,3.10
2022-08-04T03:52:31.974Z,2.95
2022-08-04T03:55:31.769Z,2.78
2022-08-04T03:58:11.083Z,3.22
2022-08-04T04:00:39.073Z,3.60
2022-08-04T04:03:26.782Z,3.17
2022-08-04T04:06:27.219Z,3.05
2022-08-04T04:09:08.105Z,3.30
2022-08-04T04:12:01.529Z,3.40
2022-08-04T04:15:07.384Z,3.38
2022-08-04T04:17:57.409Z,3.55
2022-08-04T04:20:43.107Z,3.45
2022-08-04T04:23:24.974Z,3.50
2022-08-04T04:26:29.960Z,3.10
2022-08-04T04:29:03.755Z,3.95
2022-08-04T04:31:36.063Z,3.58
2022-08-04T04:34:15.079Z,3.33
2022-08-04T04:36:57.220Z,3.55
2022-08-04T04:39:24.423Z,3.35
2022-08-04T04:42:13.711Z,3.50
2022-08-04T04:45:05.757Z,3.42
2022-08-04T04:48:08.052Z,3.90
2022-08-04T04:50:58.714Z,3.27
2022-08-04T04:53:36.091Z,3.33
2022-08-04T04:56:12.205Z,3.38
2022-08-04T04:58:39.482Z,3.50
2022-08-04T05:01:12.517Z,3.55
2022-08-04T05:04:08.973Z,3.22
2022-08-04T05:07:13.506Z,3.50
2022-08-04T05:10:26.588Z,3.30
2022-08-04T05:14:34.835Z,3.60
2022-08-04T05:16:32.963Z,3.13
2022-08-04T05:19:14.336Z,3.30
2022-08-04T05:21:49.942Z,3.35
2022-08-04T05:24:21.365Z,3.65
2022-08-04T05:27:01.898Z,3.63
2022-08-04T05:29:37.331Z,3.30
2022-08-04T05:32:12.638Z,3.33
2022-08-04T05:34:42.465Z,3.30
2022-08-04T05:37:11.063Z,3.38
2022-08-04T05:39:49.827Z,3.42
2022-08-04T05:42:17.003Z,3.72
2022-08-04T05:44:48.943Z,3.40
2022-08-04T05:47:18.459Z,3.42
2022-08-04T05:49:45.660Z,3.28
2022-08-04T05:52:28.411Z,3.60
2022-08-04T05:54:55.651Z,3.35
2022-08-04T05:57:23.145Z,3.65
2022-08-04T05:59:50.571Z,3.33
2022-08-04T06:02:18.104Z,3.40
2022-08-04T06:04:47.143Z,3.42
2022-08-04T06:07:14.722Z,3.50
2022-08-04T06:09:42.065Z,3.10
2022-08-04T06:12:19.161Z,3.67
2022-08-04T06:14:48.675Z,3.67
2022-08-04T06:19:58.817Z,3.58
2022-08-04T06:20:19.388Z,3.97
2022-08-04T06:23:00.189Z,3.70
2022-08-04T06:25:29.878Z,3.50
2022-08-04T06:27:57.595Z,3.83
2022-08-04T06:30:27.180Z,3.80
2022-08-04T06:33:03.472Z,3.50
2022-08-04T06:35:32.124Z,3.63
2022-08-04T06:38:01.303Z,3.78
2022-08-04T06:40:31.435Z,4.15
2022-08-04T06:43:01.581Z,4.10
2022-08-04T06:45:28.850Z,7.97
2022-08-04T06:47:56.127Z,3.88
2022-08-04T06:51:27.839Z,4.10
2022-08-04T06:53:10.593Z,4.30
2022-08-04T06:55:38.091Z,3.80
2022-08-04T06:58:05.256Z,4.47
2022-08-04T07:00:32.464Z,4.38
2022-08-04T07:03:00.153Z,3.80
2022-08-04T07:05:27.358Z,3.83
2022-08-04T07:07:56.756Z,4.00
2022-08-04T07:10:27.584Z,3.30
2022-08-04T07:12:59.002Z,3.55
2022-08-04T07:15:26.647Z,3.70
2022-08-04T07:17:54.685Z,3.58
2022-08-04T07:20:34.996Z,3.30
2022-08-04T07:23:04.583Z,3.40
2022-08-04T07:26:11.417Z,3.25
2022-08-04T07:28:27.222Z,3.45
2022-08-04T07:30:55.171Z,3.35
2022-08-04T07:33:22.451Z,2.92
2022-08-04T07:36:09.598Z,3.20
2022-08-04T07:38:48.214Z,3.00
2022-08-04T07:41:40.339Z,3.05
2022-08-04T07:44:08.364Z,3.10
2022-08-04T07:46:36.482Z,3.28
2022-08-04T07:49:04.393Z,3.15
2022-08-04T07:51:32.184Z,3.20
2022-08-04T07:54:01.427Z,3.40
2022-08-04T07:56:28.671Z,3.17
2022-08-04T07:58:56.082Z,3.10
2022-08-04T08:01:23.837Z,3.20
2022-08-04T08:03:51.402Z,3.03
2022-08-04T08:06:32.606Z,3.10
2022-08-04T08:09:13.794Z,3.38
2022-08-04T08:12:38.656Z,3.15
2022-08-04T08:14:35.321Z,2.85
2022-08-04T08:17:03.148Z,2.97
2022-08-04T08:19:31.187Z,3.35
2022-08-04T08:22:00.598Z,3.40
2022-08-04T08:24:35.638Z,3.08
2022-08-04T08:27:06.767Z,3.10
2022-08-04T08:29:34.892Z,3.05
2022-08-04T08:32:07.774Z,3.35
2022-08-04T08:34:36.194Z,3.22
2022-08-04T08:37:05.596Z,3.00
2022-08-04T08:39:43.118Z,3.00
2022-08-04T08:42:51.772Z,3.30
2022-08-04T08:45:40.174Z,3.00
2022-08-04T08:48:26.041Z,3.20
2022-08-04T08:51:37.689Z,3.17
2022-08-04T08:54:27.501Z,3.08
2022-08-04T08:57:28.161Z,3.28
2022-08-04T09:00:34.579Z,3.20
2022-08-04T09:03:26.747Z,2.90
2022-08-04T09:06:15.775Z,2.80
2022-08-04T09:09:02.069Z,2.80
2022-08-04T09:11:35.547Z,3.15
2022-08-04T09:14:11.236Z,2.80
2022-08-04T09:16:54.105Z,3.05
2022-08-04T09:19:38.790Z,3.17
2022-08-04T09:22:12.798Z,2.90
2022-08-04T09:25:12.433Z,2.95
2022-08-04T09:27:39.566Z,3.10
2022-08-04T09:30:08.167Z,3.10
2022-08-04T09:32:38.043Z,3.10
2022-08-04T09:35:26.031Z,3.20
2022-08-04T09:38:08.807Z,2.35
2022-08-04T09:40:58.598Z,3.00
2022-08-04T09:44:43.103Z,2.90
2022-08-04T09:46:30.581Z,3.20
2022-08-04T09:49:23.990Z,3.10
2022-08-04T09:51:57.957Z,3.15
2022-08-04T09:54:33.790Z,2.75
2022-08-04T09:57:22.574Z,2.70
2022-08-04T10:00:01.891Z,2.78
2022-08-04T10:02:42.687Z,2.88
2022-08-04T10:05:13.397Z,3.10
2022-08-04T10:08:16.334Z,2.83
2022-08-04T10:11:04.362Z,2.75
2022-08-04T10:13:39.654Z,2.60
2022-08-04T10:16:41.578Z,2.42
2022-08-04T10:19:31.709Z,2.28
2022-08-04T10:22:28.988Z,2.60
2022-08-04T10:26:02.592Z,2.47
2022-08-04T10:28:11.529Z,2.63
2022-08-04T10:30:40.738Z,2.22
2022-08-04T10:33:25.990Z,2.20
2022-08-04T10:36:09.227Z,2.53
2022-08-04T10:38:46.046Z,2.50
2022-08-04T10:41:25.725Z,2.65
2022-08-04T10:44:42.256Z,2.50
2022-08-04T10:47:14.470Z,2.50
2022-08-04T10:49:43.536Z,2.50
2022-08-04T10:52:22.638Z,2.88
2022-08-04T10:55:11.619Z,2.50
2022-08-04T10:57:49.511Z,3.08
2022-08-04T11:00:26.776Z,4.25
2022-08-04T11:03:00.743Z,5.53
2022-08-04T11:08:07.558Z,2.55
2022-08-04T11:11:05.858Z,2.50
2022-08-04T11:14:12.849Z,3.20
2022-08-04T11:16:53.184Z,2.60
2022-08-04T11:19:51.483Z,2.20
2022-08-04T11:22:26.861Z,2.33
2022-08-04T11:25:17.641Z,2.30
2022-08-04T11:27:57.581Z,2.30
2022-08-04T11:30:25.425Z,2.40
2022-08-04T11:33:10.711Z,2.40
2022-08-04T11:35:45.404Z,2.30
2022-08-04T11:38:29.191Z,2.33
2022-08-04T11:41:04.425Z,2.40
2022-08-04T11:44:02.734Z,2.22
2022-08-04T11:46:41.351Z,1.90
2022-08-04T11:49:32.245Z,1.90
2022-08-04T11:52:19.656Z,1.90
2022-08-04T11:54:52.703Z,2.08
2022-08-04T11:57:35.479Z,1.90
2022-08-04T12:00:10.465Z,2.00
2022-08-04T12:02:52.329Z,1.92
2022-08-04T12:05:32.386Z,2.00
2022-08-04T12:08:30.676Z,2.25
2022-08-04T12:11:20.999Z,2.00
2022-08-04T12:14:14.966Z,2.05
2022-08-04T12:16:43.034Z,1.98
2022-08-04T12:19:17.565Z,2.00
2022-08-04T12:21:50.293Z,2.25
2022-08-04T12:24:22.502Z,2.08
2022-08-04T12:26:55.907Z,2.20
2022-08-04T12:29:23.262Z,2.25
2022-08-04T12:31:55.827Z,2.20
2022-08-04T12:34:32.900Z,2.30
2022-08-04T12:37:07.159Z,2.28
2022-08-04T12:39:34.441Z,2.40
2022-08-04T12:42:24.093Z,2.40
2022-08-04T12:44:54.170Z,2.20
2022-08-04T12:47:29.039Z,2.10
2022-08-04T12:50:03.378Z,2.42
2022-08-04T12:53:00.359Z,2.10
2022-08-04T12:55:22.699Z,2.15
2022-08-04T12:57:50.028Z,2.05
2022-08-04T13:00:29.836Z,2.00
2022-08-04T13:03:01.906Z,2.45
2022-08-04T13:05:29.720Z,2.40
2022-08-04T13:07:56.910Z,2.30
2022-08-04T13:10:30.546Z,7.40
2022-08-04T13:12:59.403Z,8.15
2022-08-04T13:15:28.054Z,2.35
2022-08-04T13:18:03.028Z,2.03
2022-08-04T13:20:35.077Z,3.28
2022-08-04T13:23:08.958Z,2.20
2022-08-04T13:26:42.779Z,2.20
2022-08-04T13:28:29.492Z,2.40
2022-08-04T13:30:59.257Z,2.20
2022-08-04T13:33:34.488Z,2.30
2022-08-04T13:36:01.797Z,3.63
2022-08-04T13:38:29.459Z,12.88
2022-08-04T13:40:57.541Z,2.30
2022-08-04T13:43:50.022Z,3.10
2022-08-04T13:46:27.703Z,2.08
2022-08-04T13:49:23.734Z,2.00
2022-08-04T13:51:57.549Z,2.08
2022-08-04T13:54:44.055Z,2.17
2022-08-04T13:57:13.102Z,2.25
2022-08-04T13:59:41.604Z,1.90
2022-08-04T14:02:11.394Z,2.20
2022-08-04T14:04:40.684Z,2.58
2022-08-04T14:07:20.566Z,2.30
2022-08-04T14:10:02.972Z,2.20
2022-08-04T14:12:45.599Z,2.50
2022-08-04T14:16:01.073Z,2.38
2022-08-04T14:18:18.449Z,2.47
2022-08-04T14:20:59.042Z,2.10
2022-08-04T14:23:31.872Z,2.38
2022-08-04T14:26:01.857Z,2.05
2022-08-04T14:29:00.073Z,2.55
2022-08-04T14:31:21.883Z,2.25
2022-08-04T14:34:04.345Z,2.20
2022-08-04T14:36:56.048Z,2.25
2022-08-04T14:39:39.032Z,2.28
2022-08-04T14:42:06.898Z,2.28
2022-08-04T14:44:56.010Z,2.35
2022-08-04T14:47:52.386Z,2.25
2022-08-04T14:50:20.781Z,2.20
2022-08-04T14:52:48.387Z,2.38
2022-08-04T14:55:24.930Z,2.03
2022-08-04T14:58:35.690Z,2.10
2022-08-04T15:00:41.075Z,2.08
2022-08-04T15:03:09.727Z,2.28
2022-08-04T15:06:02.380Z,2.20
2022-08-04T15:08:30.829Z,2.20
2022-08-04T15:13:27.136Z,2.10
2022-08-04T15:16:06.037Z,2.10
2022-08-04T15:18:38.799Z,2.47
2022-08-04T15:21:06.859Z,2.17
2022-08-04T15:23:39.617Z,2.42
2022-08-04T15:26:13.426Z,2.13
2022-08-04T15:28:47.658Z,2.10
2022-08-04T15:32:03.967Z,2.53
2022-08-04T15:34:03.615Z,2.20
2022-08-04T15:36:36.855Z,2.20
2022-08-04T15:39:12.590Z,2.10
2022-08-04T15:42:02.115Z,2.15
2022-08-04T15:45:07.184Z,2.42
2022-08-04T15:47:34.546Z,2.38
2022-08-04T15:50:10.032Z,2.38
2022-08-04T15:53:01.218Z,2.35
2022-08-04T15:55:42.047Z,2.08
2022-08-04T15:58:14.146Z,2.38
2022-08-04T16:00:56.071Z,2.00
2022-08-04T16:03:53.173Z,2.28
2022-08-04T16:06:22.660Z,1.95
2022-08-04T16:08:57.378Z,2.05
2022-08-04T16:11:30.999Z,2.03
2022-08-04T16:13:59.297Z,2.00
2022-08-04T16:16:27.351Z,2.00
2022-08-04T16:18:54.834Z,2.28
2022-08-04T16:21:24.587Z,2.55
2022-08-04T16:24:06.454Z,2.22
2022-08-04T16:26:37.829Z,2.03
2022-08-04T16:29:23.783Z,2.38
2022-08-04T16:32:10.359Z,2.10
2022-08-04T16:34:48.207Z,3.88
2022-08-04T16:37:19.073Z,2.58
2022-08-04T16:39:49.614Z,2.15
2022-08-04T16:42:27.999Z,2.83
2022-08-04T16:45:07.551Z,2.30
2022-08-04T16:47:49.942Z,2.80
2022-08-04T16:50:21.695Z,2.80
2022-08-04T16:52:51.061Z,2.40
2022-08-04T16:55:18.598Z,2.47
2022-08-04T16:57:49.491Z,2.20
2022-08-04T17:00:17.318Z,2.28
2022-08-04T17:02:46.001Z,2.30
2022-08-04T17:05:38.357Z,2.35
2022-08-04T17:08:29.290Z,2.15
2022-08-04T17:10:55.604Z,2.30
2022-08-04T17:14:02.758Z,2.10
2022-08-04T17:16:19.219Z,2.40
2022-08-04T17:18:51.556Z,2.22
2022-08-04T17:21:25.370Z,2.20
2022-08-04T17:24:15.152Z,2.55
2022-08-04T17:26:54.473Z,2.35
2022-08-04T17:29:44.181Z,2.20
2022-08-04T17:32:16.659Z,2.60
2022-08-04T17:34:47.649Z,2.13
2022-08-04T17:37:38.374Z,2.20
2022-08-04T17:40:10.294Z,2.50
2022-08-04T17:48:24.298Z,2.10
2022-08-04T17:50:52.343Z,2.53
2022-08-04T17:53:21.099Z,2.40
2022-08-04T17:55:49.600Z,2.20
2022-08-04T17:58:22.839Z,2.28
2022-08-04T18:01:23.016Z,2.20
2022-08-04T18:03:52.995Z,2.30
2022-08-04T18:06:22.769Z,2.30
2022-08-04T18:08:57.710Z,2.30
2022-08-04T18:11:29.732Z,2.20
2022-08-04T18:14:10.122Z,2.40
2022-08-04T18:16:44.640Z,2.30
2022-08-04T18:19:13.570Z,2.53
2022-08-04T18:21:45.514Z,2.35
2022-08-04T18:24:36.101Z,2.40
2022-08-04T18:27:14.534Z,2.50
2022-08-04T18:30:14.592Z,2.33
2022-08-04T18:32:33.832Z,2.38
2022-08-04T18:35:05.802Z,2.35
2022-08-04T18:38:06.716Z,2.40
2022-08-04T18:40:26.564Z,2.50
2022-08-04T18:42:59.890Z,2.40
2022-08-04T18:45:34.094Z,2.60
2022-08-04T18:48:14.970Z,2.60
2022-08-04T18:51:11.063Z,2.95
2022-08-04T18:53:35.076Z,2.65
2022-08-04T18:56:06.234Z,3.25
2022-08-04T18:58:52.108Z,3.00
2022-08-04T19:01:20.297Z,2.90
2022-08-04T19:03:57.634Z,3.05
2022-08-04T19:06:26.045Z,3.17
2022-08-04T19:08:54.766Z,3.42
2022-08-04T19:11:52.635Z,3.60
2022-08-04T19:14:13.780Z,3.33
2022-08-04T19:16:41.714Z,3.85
2022-08-04T19:19:14.008Z,3.95
2022-08-04T19:22:00.108Z,3.70
2022-08-04T19:24:34.113Z,3.72
2022-08-04T19:27:08.436Z,3.80
2022-08-04T19:29:41.392Z,3.70
2022-08-04T19:34:47.114Z,3.60
2022-08-04T19:37:58.532Z,3.40
2022-08-04T19:40:09.520Z,3.25
2022-08-04T19:42:37.513Z,3.38
2022-08-04T19:45:05.477Z,3.40
2022-08-04T19:48:18.297Z,3.63
2022-08-04T19:50:20.132Z,3.85
2022-08-04T19:52:52.577Z,3.78
2022-08-04T19:55:22.206Z,4.13
2022-08-04T19:57:51.267Z,3.80
2022-08-04T20:00:34.041Z,3.53
2022-08-04T20:03:02.930Z,3.78
2022-08-04T20:05:52.719Z,3.78
2022-08-04T20:08:17.905Z,3.90
2022-08-04T20:10:51.317Z,3.90
2022-08-04T20:13:20.409Z,4.15
2022-08-04T20:15:57.539Z,4.07
2022-08-04T20:18:35.777Z,3.97
2022-08-04T20:21:19.941Z,3.78
2022-08-04T20:23:52.261Z,4.55
2022-08-04T20:26:20.080Z,4.15
2022-08-04T20:28:51.998Z,4.10
2022-08-04T20:31:20.012Z,4.45
2022-08-04T20:33:49.271Z,4.45
2022-08-04T20:36:21.168Z,3.97
2022-08-04T20:38:52.765Z,4.10
2022-08-04T20:41:21.266Z,3.92
2022-08-04T20:43:49.928Z,4.30
2022-08-04T20:46:29.541Z,4.25
2022-08-04T20:48:57.959Z,4.47
2022-08-04T20:51:32.073Z,4.18
2022-08-04T20:54:01.737Z,4.20
2022-08-04T20:56:30.899Z,4.35
2022-08-04T20:59:00.062Z,4.20
2022-08-04T21:01:29.873Z,3.85
2022-08-04T21:04:27.724Z,4.38
2022-08-04T21:06:57.331Z,4.57
2022-08-04T21:09:37.038Z,4.40
2022-08-04T21:12:07.105Z,4.68
2022-08-04T21:14:34.598Z,4.30
2022-08-04T21:17:03.834Z,4.68
2022-08-04T21:19:36.747Z,4.30
2022-08-04T21:22:10.423Z,4.97
2022-08-04T21:24:38.416Z,4.47
2022-08-04T21:27:09.758Z,4.30
2022-08-04T21:29:37.095Z,4.07
2022-08-04T21:32:05.952Z,4.15
2022-08-04T21:34:39.091Z,4.35
2022-08-04T21:37:09.144Z,4.60
2022-08-04T21:39:50.355Z,4.22
2022-08-04T21:42:29.011Z,4.55
2022-08-04T21:44:58.007Z,4.35
2022-08-04T21:47:25.425Z,4.15
2022-08-04T21:49:55.962Z,4.45
2022-08-04T21:52:24.873Z,4.43
2022-08-04T21:54:54.120Z,4.88
2022-08-04T21:57:24.957Z,4.50
2022-08-04T21:59:52.838Z,4.70
2022-08-04T22:02:20.139Z,4.30
2022-08-04T22:04:48.775Z,4.70
2022-08-04T22:07:16.972Z,4.20
2022-08-04T22:09:45.632Z,4.10
2022-08-04T22:12:29.974Z,4.75
2022-08-04T22:14:59.410Z,4.50
2022-08-04T22:17:28.051Z,4.60
2022-08-04T22:20:03.187Z,4.25
2022-08-04T22:22:34.045Z,4.38
2022-08-04T22:25:06.298Z,4.22
2022-08-04T22:28:00.819Z,4.45
2022-08-04T22:30:36.529Z,4.53
2022-08-04T22:33:07.368Z,4.40
2022-08-04T22:35:43.520Z,4.72
2022-08-04T22:38:25.529Z,4.13
2022-08-04T22:41:09.119Z,4.63
2022-08-04T22:43:37.616Z,4.60
2022-08-04T22:46:06.778Z,4.88
2022-08-04T22:48:35.904Z,4.93
2022-08-04T22:51:03.731Z,5.07
2022-08-04T22:53:31.155Z,4.60
2022-08-04T22:56:09.278Z,4.88
2022-08-04T22:58:45.302Z,4.80
2022-08-04T23:01:16.434Z,4.60
2022-08-04T23:03:51.233Z,4.60
2022-08-04T23:06:24.299Z,4.70
2022-08-04T23:08:52.257Z,4.80
2022-08-04T23:11:19.477Z,4.80
2022-08-04T23:13:47.272Z,4.55
2022-08-04T23:16:17.114Z,4.53
2022-08-04T23:18:45.859Z,4.65
2022-08-04T23:21:16.115Z,4.45
2022-08-04T23:23:55.352Z,4.65
2022-08-04T23:26:28.502Z,4.32
2022-08-04T23:28:56.840Z,4.50
2022-08-04T23:31:24.397Z,5.43
2022-08-04T23:33:52.349Z,5.05
2022-08-04T23:36:29.429Z,4.93
2022-08-04T23:39:04.114Z,4.60
2022-08-04T23:41:51.035Z,5.05
2022-08-04T23:44:24.388Z,4.95
2022-08-04T23:47:00.459Z,4.63
2022-08-04T23:49:43.181Z,4.90
2022-08-04T23:52:28.295Z,4.60
2022-08-04T23:55:00.938Z,5.03
2022-08-04T23:57:31.075Z,4.55
